首页
METAR-TAF:

METAR-TAF

机场 :

西沃萨古尔·拉姆古兰爵士国际机场

毛里求斯, 毛里求斯

纬度: 20-26S, 经度: 057-40E, 海拔: 55米

当前天气观测

该预报发布于51分钟前的08:00 UTC
风速11节,风向东北
温度 27°C
湿度 79%
气压 1016 hPa
能见度10公里或以上
散云层高于1600英尺
多云层高于10000英尺

METAR: FIMP 160800Z 05011KT 9999 SCT016 BKN100 27/23 Q1016

时间: 12:51 (08:51 UTC)

预报

该预报发布于3小时和31分钟前的05:20 UTC
预报有效从16日的 06点(UTC)到 17日的 12点(UTC)
风速8节,风向北转东北
能见度10公里或以上
散云层高于1600英尺
几率 40% :
短暂存在
从 16日的 08点(UTC)到 16日的 20点(UTC)
能見度: 3000
少量云层高于800英尺
少量云层高于1300英尺, 塔状积云.
多云层高于1400英尺
阵雨
几率 30% :
短暂存在
从 16日的 08点(UTC)到 16日的 16点(UTC)
风速15节,风向多变
能見度: 2000
少量云层高于600英尺
少量云层高于1200英尺, 积雨云.
多云层高于1300英尺

TAF: FIMP 160520Z 1606/1712 02008KT 9999 SCT016 PROB40 TEMPO 1608/1620 3000 SHRA FEW008 FEW013TCU BKN014 PROB30 TEMPO 1608/1616 VRB15KT 2000 +SHRA/TSRA FEW006 FEW012CB BKN013

超过4000个机场的气象观测和天气预报(METAR&TAF报告)。

可查询的气象台以黄色和红色小点在地图上表示。

将鼠标移到小点上方,可查看气象台名称。

然后点击查看天气观测和预报。

如需切换地图:点击带黑十字的绿色按钮放大地图;点击带横线的绿色按钮缩小地图;或者点击绿色箭头查看邻近地区的地图。


METAR-TAF: